createdAt,value
2022-10-10T00:02:54.617Z,7.20
2022-10-10T00:05:57.541Z,7.13
2022-10-10T00:09:00.527Z,7.57
2022-10-10T00:12:03.435Z,8.90
2022-10-10T00:15:07.298Z,9.17
2022-10-10T00:18:11.505Z,9.10
2022-10-10T00:21:14.697Z,9.30
2022-10-10T00:24:17.622Z,9.70
2022-10-10T00:27:20.712Z,9.40
2022-10-10T00:30:23.572Z,9.37
2022-10-10T00:33:27.812Z,10.07
2022-10-10T00:36:30.671Z,9.77
2022-10-10T00:39:33.600Z,8.77
2022-10-10T00:42:36.486Z,9.70
2022-10-10T00:45:41.163Z,10.27
2022-10-10T00:48:46.823Z,8.93
2022-10-10T00:51:52.672Z,9.07
2022-10-10T00:54:55.553Z,10.03
2022-10-10T00:57:59.137Z,11.60
2022-10-10T01:01:02.098Z,11.80
2022-10-10T01:04:06.717Z,10.70
2022-10-10T01:07:12.706Z,10.77
2022-10-10T01:10:18.579Z,11.37
2022-10-10T01:13:31.545Z,11.23
2022-10-10T01:16:42.342Z,12.40
2022-10-10T01:20:22.492Z,11.23
2022-10-10T01:24:00.267Z,11.30
2022-10-10T01:27:19.375Z,11.63
2022-10-10T01:30:25.305Z,11.53
2022-10-10T01:33:33.969Z,11.60
2022-10-10T01:36:44.563Z,11.93
2022-10-10T01:40:01.395Z,12.67
2022-10-10T01:43:07.942Z,11.87
2022-10-10T01:46:13.704Z,12.90
2022-10-10T01:49:17.015Z,12.20
2022-10-10T01:52:33.826Z,11.17
2022-10-10T01:55:54.988Z,13.47
2022-10-10T01:59:23.179Z,11.73
2022-10-10T02:02:37.665Z,12.93
2022-10-10T02:05:45.257Z,14.90
2022-10-10T02:08:52.736Z,12.83
2022-10-10T02:11:57.793Z,13.70
2022-10-10T02:15:08.090Z,13.53
2022-10-10T02:18:15.718Z,12.43
2022-10-10T02:21:19.633Z,13.63
2022-10-10T02:24:24.033Z,13.77
2022-10-10T02:27:33.715Z,15.37
2022-10-10T02:30:39.347Z,14.27
2022-10-10T02:33:47.333Z,14.50
2022-10-10T02:36:53.491Z,14.70
2022-10-10T02:40:02.391Z,11.50
2022-10-10T02:43:07.999Z,11.87
2022-10-10T02:46:14.691Z,14.70
2022-10-10T02:49:24.181Z,13.63
2022-10-10T02:52:27.052Z,12.80
2022-10-10T02:55:30.140Z,12.57
2022-10-10T02:58:33.298Z,13.00
2022-10-10T03:01:36.141Z,13.53
2022-10-10T03:04:40.760Z,12.30
2022-10-10T03:07:43.600Z,12.50
2022-10-10T03:10:56.573Z,11.23
2022-10-10T03:13:59.634Z,12.97
2022-10-10T03:17:02.490Z,13.50
2022-10-10T03:20:08.634Z,15.20
2022-10-10T03:23:11.460Z,13.33
2022-10-10T03:26:14.355Z,12.90
2022-10-10T03:29:17.596Z,11.17
2022-10-10T03:32:20.435Z,13.13
2022-10-10T03:35:24.626Z,12.07
2022-10-10T03:38:27.646Z,11.03
2022-10-10T03:41:30.519Z,11.70
2022-10-10T03:44:33.428Z,11.60
2022-10-10T03:47:36.251Z,11.27
2022-10-10T03:50:40.837Z,11.13
2022-10-10T03:53:43.724Z,9.63
2022-10-10T03:56:46.917Z,9.87
2022-10-10T03:59:50.048Z,9.67
2022-10-10T04:02:53.735Z,10.07
2022-10-10T04:05:58.361Z,9.57
2022-10-10T04:09:01.280Z,9.07
2022-10-10T04:12:04.554Z,9.57
2022-10-10T04:15:08.429Z,8.50
2022-10-10T04:18:11.452Z,8.80
2022-10-10T04:21:15.732Z,7.27
2022-10-10T04:24:18.640Z,6.50
2022-10-10T04:27:21.776Z,5.93
2022-10-10T04:30:24.655Z,6.33
2022-10-10T04:33:27.497Z,6.03
2022-10-10T04:36:31.930Z,5.37
2022-10-10T04:39:34.868Z,5.77
2022-10-10T04:42:37.699Z,5.27
2022-10-10T04:45:41.123Z,4.70
2022-10-10T04:48:44.347Z,5.27
2022-10-10T04:51:49.277Z,5.67
2022-10-10T04:54:52.814Z,4.60
2022-10-10T04:57:56.065Z,5.10
2022-10-10T05:00:59.655Z,4.77
2022-10-10T05:04:03.693Z,5.63
2022-10-10T05:07:08.293Z,5.03
2022-10-10T05:10:11.877Z,5.47
2022-10-10T05:13:15.959Z,4.97
2022-10-10T05:16:19.211Z,5.07
2022-10-10T05:19:22.467Z,5.60
2022-10-10T05:22:27.035Z,5.00
2022-10-10T05:25:30.286Z,4.57
2022-10-10T05:28:35.262Z,4.93
2022-10-10T05:31:38.549Z,4.83
2022-10-10T05:34:41.796Z,4.43
2022-10-10T05:37:46.488Z,4.97
2022-10-10T05:40:49.765Z,5.23
2022-10-10T05:43:53.072Z,4.87
2022-10-10T05:46:56.613Z,4.10
2022-10-10T05:49:59.908Z,4.37
2022-10-10T05:53:04.507Z,4.57
2022-10-10T05:56:08.547Z,4.90
2022-10-10T05:59:11.780Z,3.87
2022-10-10T06:02:15.129Z,4.17
2022-10-10T06:05:18.441Z,4.97
2022-10-10T06:08:23.056Z,4.63
2022-10-10T06:11:26.692Z,4.57
2022-10-10T06:14:29.949Z,3.87
2022-10-10T06:17:33.313Z,4.70
2022-10-10T06:20:37.033Z,4.10
2022-10-10T06:23:41.633Z,4.43
2022-10-10T06:26:44.924Z,5.00
2022-10-10T06:29:48.151Z,5.17
2022-10-10T06:32:55.820Z,4.67
2022-10-10T06:36:00.356Z,5.37
2022-10-10T06:39:05.019Z,5.50
2022-10-10T06:42:08.275Z,4.67
2022-10-10T06:45:11.708Z,5.27
2022-10-10T06:48:15.745Z,5.77
2022-10-10T06:51:19.531Z,6.30
2022-10-10T06:54:24.174Z,6.40
2022-10-10T06:57:27.429Z,6.63
2022-10-10T07:00:30.711Z,6.47
2022-10-10T07:03:34.141Z,6.93
2022-10-10T07:06:38.156Z,6.87
2022-10-10T07:09:42.768Z,6.40
2022-10-10T07:12:46.037Z,6.03
2022-10-10T07:15:49.294Z,6.07
2022-10-10T07:18:52.139Z,4.90
2022-10-10T07:21:55.061Z,5.40
2022-10-10T07:24:59.299Z,4.53
2022-10-10T07:28:02.234Z,5.80
2022-10-10T07:31:07.203Z,5.30
2022-10-10T07:34:10.143Z,5.80
2022-10-10T07:37:13.075Z,4.93
2022-10-10T07:40:17.381Z,4.83
2022-10-10T07:43:20.321Z,5.33
2022-10-10T07:46:24.365Z,4.43
2022-10-10T07:49:27.427Z,3.90
2022-10-10T07:52:30.526Z,3.37
2022-10-10T07:55:34.958Z,4.33
2022-10-10T07:58:38.310Z,3.43
2022-10-10T08:01:41.363Z,3.23
2022-10-10T08:04:44.277Z,2.93
2022-10-10T08:07:47.192Z,2.90
2022-10-10T08:10:51.416Z,2.63
2022-10-10T08:13:54.484Z,2.73
2022-10-10T08:16:57.339Z,2.30
2022-10-10T08:20:00.241Z,1.87
2022-10-10T08:23:03.130Z,2.13
2022-10-10T08:26:09.749Z,2.20
2022-10-10T08:29:12.661Z,2.37
2022-10-10T08:32:15.730Z,2.23
2022-10-10T08:35:18.684Z,2.30
2022-10-10T08:38:21.998Z,2.10
2022-10-10T08:41:35.811Z,1.93
2022-10-10T08:44:42.193Z,2.57
2022-10-10T08:47:50.448Z,2.53
2022-10-10T08:50:59.225Z,1.57
2022-10-10T08:54:06.890Z,1.43
2022-10-10T08:57:23.649Z,1.67
2022-10-10T09:00:32.975Z,1.73
2022-10-10T09:03:40.557Z,2.53
2022-10-10T09:06:58.380Z,2.20
2022-10-10T09:10:09.606Z,1.97
2022-10-10T09:13:25.821Z,2.17
2022-10-10T09:16:39.367Z,2.00
2022-10-10T09:19:48.553Z,1.80
2022-10-10T09:22:55.790Z,1.70
2022-10-10T09:26:03.116Z,2.07
2022-10-10T09:29:25.731Z,1.67
2022-10-10T09:32:34.931Z,1.20
2022-10-10T09:35:42.371Z,1.50
2022-10-10T09:38:50.145Z,1.23
2022-10-10T09:41:55.884Z,1.40
2022-10-10T09:45:00.713Z,1.70
2022-10-10T09:48:03.991Z,1.70
2022-10-10T09:51:08.498Z,1.77
2022-10-10T09:54:13.070Z,2.07
2022-10-10T09:57:17.637Z,1.63
2022-10-10T10:00:29.457Z,1.93
2022-10-10T10:03:32.910Z,1.37
2022-10-10T10:06:35.904Z,1.97
2022-10-10T10:09:39.457Z,1.97
2022-10-10T10:12:44.657Z,2.33
2022-10-10T10:15:53.497Z,1.60
2022-10-10T10:18:56.516Z,2.10
2022-10-10T10:21:59.467Z,1.30
2022-10-10T10:25:33.559Z,1.80
2022-10-10T10:28:42.537Z,2.20
2022-10-10T10:31:55.534Z,2.00
2022-10-10T10:35:13.432Z,1.97
2022-10-10T10:38:27.069Z,2.20
2022-10-10T10:41:34.694Z,2.43
2022-10-10T10:44:43.561Z,1.90
2022-10-10T10:47:59.874Z,1.70
2022-10-10T10:51:13.977Z,2.17
2022-10-10T10:54:30.020Z,1.50
2022-10-10T10:58:00.087Z,1.77
2022-10-10T11:01:24.163Z,1.60
2022-10-10T11:05:17.481Z,1.77
2022-10-10T11:08:29.382Z,2.30
2022-10-10T11:11:43.296Z,1.60
2022-10-10T11:14:56.499Z,1.20
2022-10-10T11:18:05.059Z,1.50
2022-10-10T11:21:14.011Z,1.50
2022-10-10T11:24:23.935Z,2.07
2022-10-10T11:27:33.940Z,1.20
2022-10-10T11:30:42.090Z,2.47
2022-10-10T11:33:48.466Z,1.97
2022-10-10T11:36:55.589Z,1.30
2022-10-10T11:40:02.081Z,1.93
2022-10-10T11:43:12.101Z,1.10
2022-10-10T11:46:22.679Z,1.70
2022-10-10T11:49:31.380Z,1.57
2022-10-10T11:52:40.958Z,1.40
2022-10-10T11:55:53.158Z,2.10
2022-10-10T11:59:01.437Z,1.53
2022-10-10T12:02:17.395Z,1.80
2022-10-10T12:05:23.317Z,1.60
2022-10-10T12:08:36.089Z,1.80
2022-10-10T12:11:43.665Z,2.00
2022-10-10T12:14:53.954Z,2.03
2022-10-10T12:17:57.608Z,1.70
2022-10-10T12:21:07.341Z,1.37
2022-10-10T12:24:14.007Z,1.60
2022-10-10T12:27:43.763Z,2.40
2022-10-10T12:31:20.366Z,1.43
2022-10-10T12:34:43.084Z,1.40
2022-10-10T12:38:11.951Z,1.23
2022-10-10T12:41:17.219Z,1.53
2022-10-10T12:44:22.335Z,1.70
2022-10-10T12:48:03.955Z,1.17
2022-10-10T12:51:07.325Z,0.90
2022-10-10T12:54:24.398Z,1.40
2022-10-10T12:57:33.393Z,1.67
2022-10-10T13:00:40.321Z,1.50
2022-10-10T13:03:46.115Z,1.33
2022-10-10T13:06:52.727Z,1.70
2022-10-10T13:10:04.823Z,1.60
2022-10-10T13:13:18.781Z,1.63
2022-10-10T13:16:23.299Z,2.05
2022-10-10T13:19:26.499Z,1.43
2022-10-10T13:22:31.051Z,1.63
2022-10-10T13:25:35.183Z,1.70
2022-10-10T13:28:39.459Z,1.80
2022-10-10T13:31:43.753Z,1.83
2022-10-10T13:34:49.822Z,1.60
2022-10-10T13:37:55.634Z,2.13
2022-10-10T13:40:58.747Z,1.88
2022-10-10T13:44:03.100Z,1.65
2022-10-10T13:47:39.495Z,1.30
2022-10-10T13:50:57.469Z,1.15
2022-10-10T13:54:00.456Z,1.00
2022-10-10T13:57:04.411Z,1.00
2022-10-10T14:00:17.511Z,1.30
2022-10-10T14:03:22.065Z,1.00
2022-10-10T14:06:28.289Z,1.70
2022-10-10T14:09:35.318Z,1.30
2022-10-10T14:12:42.727Z,1.60
2022-10-10T14:15:48.020Z,1.73
2022-10-10T14:18:51.225Z,1.33
2022-10-10T14:21:54.175Z,1.67
2022-10-10T14:24:57.052Z,1.60
2022-10-10T14:27:59.981Z,0.90
2022-10-10T14:31:04.721Z,1.57
2022-10-10T14:34:09.898Z,1.23
2022-10-10T14:37:18.267Z,1.50
2022-10-10T14:40:23.256Z,1.40
2022-10-10T14:43:26.174Z,1.30
2022-10-10T14:46:30.572Z,1.33
2022-10-10T14:49:33.730Z,1.50
2022-10-10T14:52:36.587Z,1.67
2022-10-10T14:55:43.135Z,1.40
2022-10-10T14:58:46.139Z,1.50
2022-10-10T15:01:50.374Z,1.30
2022-10-10T15:04:53.521Z,1.67
2022-10-10T15:07:56.357Z,1.50
2022-10-10T15:10:59.486Z,2.13
2022-10-10T15:14:02.712Z,1.83
2022-10-10T15:17:07.003Z,1.23
2022-10-10T15:20:12.759Z,1.70
2022-10-10T15:23:15.676Z,1.73
2022-10-10T15:26:18.629Z,2.10
2022-10-10T15:29:21.501Z,1.87
2022-10-10T15:32:26.198Z,2.20
2022-10-10T15:35:44.620Z,1.63
2022-10-10T15:38:52.276Z,2.40
2022-10-10T15:41:55.319Z,2.60
2022-10-10T15:44:58.197Z,2.47
2022-10-10T15:48:02.400Z,3.10
2022-10-10T15:51:07.672Z,2.77
2022-10-10T15:54:10.659Z,2.97
2022-10-10T15:57:18.275Z,2.30
2022-10-10T16:00:21.604Z,3.03
2022-10-10T16:03:25.878Z,3.30
2022-10-10T16:06:28.798Z,3.40
2022-10-10T16:09:31.707Z,2.80
2022-10-10T16:12:34.635Z,3.00
2022-10-10T16:15:37.769Z,3.17
2022-10-10T16:18:43.104Z,3.27
2022-10-10T16:21:46.097Z,2.87
2022-10-10T16:25:04.043Z,2.80
2022-10-10T16:28:12.188Z,2.87
2022-10-10T16:31:17.327Z,3.13
2022-10-10T16:34:21.524Z,3.40
2022-10-10T16:37:24.519Z,3.43
2022-10-10T16:40:27.856Z,3.33
2022-10-10T16:43:30.744Z,3.70
2022-10-10T16:46:34.129Z,4.03
2022-10-10T16:49:38.491Z,3.90
2022-10-10T16:52:41.618Z,3.77
2022-10-10T16:55:46.012Z,3.87
2022-10-10T16:58:50.635Z,3.77
2022-10-10T17:01:53.497Z,3.57
2022-10-10T17:04:58.255Z,4.20
2022-10-10T17:08:01.163Z,4.47
2022-10-10T17:11:04.707Z,4.40
2022-10-10T17:14:07.885Z,4.87
2022-10-10T17:17:12.836Z,4.83
2022-10-10T17:20:17.890Z,5.40
2022-10-10T17:23:20.804Z,4.80
2022-10-10T17:26:25.925Z,5.23
2022-10-10T17:29:28.820Z,5.17
2022-10-10T17:32:32.024Z,4.57
2022-10-10T17:35:40.100Z,5.57
2022-10-10T17:38:43.012Z,4.83
2022-10-10T17:41:49.118Z,6.33
2022-10-10T17:44:56.133Z,6.47
2022-10-10T17:47:59.269Z,7.87
2022-10-10T17:51:03.720Z,7.47
2022-10-10T17:54:09.988Z,7.60
2022-10-10T17:57:12.940Z,8.20
2022-10-10T18:00:16.327Z,7.73
2022-10-10T18:03:19.874Z,7.37
2022-10-10T18:06:24.493Z,8.97
2022-10-10T18:09:27.371Z,8.17
2022-10-10T18:12:30.494Z,9.10
2022-10-10T18:15:33.413Z,7.47
2022-10-10T18:18:36.504Z,7.10
2022-10-10T18:21:40.843Z,6.27
2022-10-10T18:24:43.833Z,6.90
2022-10-10T18:27:47.002Z,6.33
2022-10-10T18:30:50.060Z,6.00
2022-10-10T18:33:53.269Z,6.30
2022-10-10T18:36:57.561Z,5.57
2022-10-10T18:40:00.652Z,5.67
2022-10-10T18:43:03.689Z,5.13
2022-10-10T18:46:09.035Z,5.20
2022-10-10T18:49:13.551Z,5.83
2022-10-10T18:52:18.145Z,6.17
2022-10-10T18:55:21.356Z,5.57
2022-10-10T18:58:24.897Z,6.17
2022-10-10T19:01:29.274Z,6.73
2022-10-10T19:04:32.159Z,7.57
2022-10-10T19:07:36.360Z,6.17
2022-10-10T19:10:45.579Z,6.37
2022-10-10T19:13:48.533Z,7.10
2022-10-10T19:16:51.377Z,6.53
2022-10-10T19:19:54.253Z,6.40
2022-10-10T19:22:58.574Z,6.70
2022-10-10T19:26:03.700Z,7.80
2022-10-10T19:29:09.445Z,7.30
2022-10-10T19:32:12.407Z,7.47
2022-10-10T19:35:15.408Z,7.90
2022-10-10T19:38:19.643Z,8.23
2022-10-10T19:41:23.073Z,8.80
2022-10-10T19:44:26.004Z,10.07
2022-10-10T19:47:29.093Z,9.80
2022-10-10T19:50:32.224Z,10.80
2022-10-10T19:53:36.493Z,11.83
2022-10-10T19:56:39.429Z,12.93
2022-10-10T19:59:42.817Z,12.03
2022-10-10T20:02:45.728Z,11.87
2022-10-10T20:05:48.616Z,13.93
2022-10-10T20:08:52.849Z,11.33
2022-10-10T20:11:56.017Z,13.17
2022-10-10T20:15:00.007Z,15.77
2022-10-10T20:18:02.868Z,14.50
2022-10-10T20:21:16.300Z,12.97
2022-10-10T20:24:21.255Z,11.87
2022-10-10T20:27:28.858Z,13.50
2022-10-10T20:30:34.362Z,12.93
2022-10-10T20:33:37.462Z,13.90
2022-10-10T20:36:40.425Z,12.20
2022-10-10T20:39:44.747Z,11.60
2022-10-10T20:42:47.616Z,10.20
2022-10-10T20:45:50.493Z,12.50
2022-10-10T20:48:54.997Z,12.10
2022-10-10T20:51:57.941Z,11.37
2022-10-10T20:55:02.390Z,10.47
2022-10-10T20:58:05.399Z,10.23
2022-10-10T21:01:10.527Z,8.50
2022-10-10T21:04:14.942Z,8.10
2022-10-10T21:07:17.915Z,7.97
2022-10-10T21:10:22.353Z,9.20
2022-10-10T21:13:25.313Z,9.90
2022-10-10T21:16:30.780Z,8.90
2022-10-10T21:19:33.656Z,9.07
2022-10-10T21:22:36.547Z,8.53
2022-10-10T21:25:41.711Z,7.97
2022-10-10T21:28:45.673Z,7.33
2022-10-10T21:31:48.581Z,8.07
2022-10-10T21:34:56.240Z,7.50
2022-10-10T21:38:00.568Z,8.90
2022-10-10T21:41:07.671Z,7.07
2022-10-10T21:44:11.909Z,6.63
2022-10-10T21:47:14.835Z,7.60
2022-10-10T21:50:18.075Z,6.83
2022-10-10T21:53:20.973Z,5.87
2022-10-10T21:56:25.797Z,6.10
2022-10-10T21:59:31.690Z,6.63
2022-10-10T22:02:34.788Z,5.40
2022-10-10T22:05:40.632Z,6.00
2022-10-10T22:08:44.703Z,6.10
2022-10-10T22:11:49.137Z,5.73
2022-10-10T22:14:52.171Z,6.17
2022-10-10T22:17:55.514Z,7.23
2022-10-10T22:20:58.986Z,7.53
2022-10-10T22:24:04.961Z,7.10
2022-10-10T22:27:09.287Z,7.20
2022-10-10T22:30:13.877Z,7.10
2022-10-10T22:33:16.902Z,6.27
2022-10-10T22:36:19.732Z,5.87
2022-10-10T22:39:22.604Z,6.00
2022-10-10T22:42:26.893Z,4.73
2022-10-10T22:45:30.172Z,4.80
2022-10-10T22:48:33.053Z,3.97
2022-10-10T22:51:35.959Z,4.07
2022-10-10T22:54:38.843Z,4.53
2022-10-10T22:57:43.055Z,4.67
2022-10-10T23:00:45.971Z,3.63
2022-10-10T23:03:49.178Z,3.80
2022-10-10T23:06:52.024Z,4.83
2022-10-10T23:09:54.910Z,4.13
2022-10-10T23:12:59.136Z,4.00
2022-10-10T23:16:02.406Z,3.93
2022-10-10T23:19:05.710Z,3.83
2022-10-10T23:22:08.652Z,3.40
2022-10-10T23:25:11.758Z,3.23
2022-10-10T23:28:17.351Z,3.53
2022-10-10T23:31:20.279Z,3.40
2022-10-10T23:34:23.171Z,3.90
2022-10-10T23:37:27.653Z,3.33
2022-10-10T23:40:31.396Z,4.03
2022-10-10T23:43:35.992Z,2.90
2022-10-10T23:46:38.997Z,3.40
2022-10-10T23:49:41.978Z,3.17
2022-10-10T23:52:44.932Z,4.33
2022-10-10T23:55:47.862Z,3.43
2022-10-10T23:58:52.237Z,3.47
